createdAt,value
2022-08-30T00:02:20.928Z,12.08
2022-08-30T00:04:48.260Z,12.13
2022-08-30T00:07:14.920Z,12.11
2022-08-30T00:09:41.799Z,12.07
2022-08-30T00:12:09.251Z,11.98
2022-08-30T00:14:39.411Z,11.89
2022-08-30T00:17:06.313Z,11.92
2022-08-30T00:19:33.045Z,11.95
2022-08-30T00:21:59.932Z,12.04
2022-08-30T00:24:26.765Z,11.98
2022-08-30T00:26:53.459Z,11.88
2022-08-30T00:29:20.629Z,11.80
2022-08-30T00:31:47.424Z,11.79
2022-08-30T00:34:14.323Z,11.88
2022-08-30T00:36:40.990Z,11.81
2022-08-30T00:39:07.690Z,11.93
2022-08-30T00:41:34.499Z,11.98
2022-08-30T00:44:01.655Z,12.02
2022-08-30T00:46:28.851Z,12.15
2022-08-30T00:48:57.376Z,12.30
2022-08-30T00:51:25.793Z,12.28
2022-08-30T00:53:55.023Z,12.33
2022-08-30T00:56:25.204Z,12.36
2022-08-30T00:58:55.767Z,12.39
2022-08-30T01:01:23.674Z,12.44
2022-08-30T01:03:50.954Z,12.38
2022-08-30T01:06:18.538Z,12.43
2022-08-30T01:08:47.117Z,12.52
2022-08-30T01:11:16.841Z,12.64
2022-08-30T01:13:47.088Z,12.57
2022-08-30T01:16:14.701Z,12.56
2022-08-30T01:18:41.548Z,12.52
2022-08-30T01:21:08.490Z,12.68
2022-08-30T01:23:38.416Z,12.60
2022-08-30T01:26:06.103Z,12.56
2022-08-30T01:28:34.482Z,12.53
2022-08-30T01:31:01.801Z,12.52
2022-08-30T01:33:28.979Z,12.52
2022-08-30T01:36:01.113Z,12.49
2022-08-30T01:38:38.392Z,12.54
2022-08-30T01:41:15.693Z,12.45
2022-08-30T01:43:43.121Z,12.64
2022-08-30T01:46:11.563Z,12.70
2022-08-30T01:48:40.303Z,12.75
2022-08-30T01:51:11.636Z,12.55
2022-08-30T01:53:40.546Z,12.53
2022-08-30T01:56:08.199Z,12.68
2022-08-30T01:58:36.064Z,12.63
2022-08-30T02:01:06.789Z,12.59
2022-08-30T02:03:35.538Z,12.68
2022-08-30T02:06:07.778Z,12.78
2022-08-30T02:08:34.854Z,12.76
2022-08-30T02:11:01.781Z,12.68
2022-08-30T02:13:28.467Z,12.66
2022-08-30T02:15:55.642Z,12.62
2022-08-30T02:18:24.425Z,12.68
2022-08-30T02:20:51.491Z,12.66
2022-08-30T02:23:18.529Z,12.64
2022-08-30T02:25:45.909Z,12.65
2022-08-30T02:28:14.866Z,12.54
2022-08-30T02:30:42.914Z,12.45
2022-08-30T02:33:09.774Z,12.39
2022-08-30T02:35:36.556Z,12.33
2022-08-30T02:38:04.327Z,12.37
2022-08-30T02:40:31.435Z,12.40
2022-08-30T02:42:58.576Z,12.52
2022-08-30T02:45:26.083Z,12.63
2022-08-30T02:47:52.940Z,12.61
2022-08-30T02:50:19.806Z,12.71
2022-08-30T02:52:48.342Z,12.70
2022-08-30T02:55:15.915Z,12.67
2022-08-30T02:57:43.621Z,12.75
2022-08-30T03:00:13.777Z,12.80
2022-08-30T03:02:41.454Z,12.88
2022-08-30T03:05:10.504Z,12.90
2022-08-30T03:07:37.243Z,12.85
2022-08-30T03:10:04.238Z,12.77
2022-08-30T03:12:32.577Z,12.73
2022-08-30T03:15:01.317Z,12.71
2022-08-30T03:17:28.087Z,12.71
2022-08-30T03:19:54.790Z,12.76
2022-08-30T03:22:21.618Z,12.77
2022-08-30T03:24:48.274Z,12.79
2022-08-30T03:27:14.979Z,12.78
2022-08-30T03:29:41.695Z,12.73
2022-08-30T03:32:09.423Z,12.59
2022-08-30T03:34:36.208Z,12.59
2022-08-30T03:37:03.004Z,12.51
2022-08-30T03:39:29.712Z,12.56
2022-08-30T03:41:56.371Z,12.75
2022-08-30T03:44:23.123Z,12.74
2022-08-30T03:46:52.017Z,12.70
2022-08-30T03:49:19.670Z,12.60
2022-08-30T03:51:47.531Z,12.58
2022-08-30T03:54:15.144Z,12.40
2022-08-30T03:56:42.138Z,12.49
2022-08-30T03:59:09.109Z,12.40
2022-08-30T04:01:35.865Z,12.34
2022-08-30T04:04:02.847Z,12.26
2022-08-30T04:06:30.578Z,12.26
2022-08-30T04:08:57.329Z,12.36
2022-08-30T04:11:24.073Z,12.36
2022-08-30T04:13:51.935Z,12.39
2022-08-30T04:16:22.031Z,12.33
2022-08-30T04:18:49.515Z,12.40
2022-08-30T04:21:16.487Z,12.45
2022-08-30T04:23:44.012Z,12.44
2022-08-30T04:26:11.287Z,12.41
2022-08-30T04:28:38.049Z,12.43
2022-08-30T04:31:16.299Z,12.40
2022-08-30T04:33:43.442Z,12.21
2022-08-30T04:36:13.693Z,12.14
2022-08-30T04:38:41.781Z,12.13
2022-08-30T04:41:12.127Z,12.12
2022-08-30T04:43:40.039Z,12.04
2022-08-30T04:46:08.424Z,12.01
2022-08-30T04:48:36.834Z,11.94
2022-08-30T04:51:14.139Z,12.01
2022-08-30T04:53:42.292Z,11.98
2022-08-30T04:56:11.441Z,12.05
2022-08-30T04:58:38.362Z,12.08
2022-08-30T05:01:05.413Z,12.13
2022-08-30T05:03:41.724Z,12.29
2022-08-30T05:06:10.913Z,12.43
2022-08-30T05:08:37.655Z,12.58
2022-08-30T05:11:06.389Z,12.63
2022-08-30T05:13:35.736Z,12.67
2022-08-30T05:16:05.852Z,12.52
2022-08-30T05:18:32.751Z,12.55
2022-08-30T05:21:08.942Z,12.58
2022-08-30T05:23:37.271Z,12.64
2022-08-30T05:26:09.662Z,12.75
2022-08-30T05:28:36.474Z,12.90
2022-08-30T05:31:13.867Z,13.01
2022-08-30T05:33:41.686Z,13.11
2022-08-30T05:36:09.888Z,13.16
2022-08-30T05:38:36.641Z,13.23
2022-08-30T05:41:08.255Z,13.32
2022-08-30T05:43:37.713Z,13.39
2022-08-30T05:46:10.964Z,13.47
2022-08-30T05:48:38.793Z,13.58
2022-08-30T05:51:11.628Z,13.66
2022-08-30T05:53:40.052Z,13.80
2022-08-30T05:56:12.568Z,13.94
2022-08-30T05:58:39.685Z,14.09
2022-08-30T06:01:07.011Z,14.22
2022-08-30T06:03:34.450Z,14.35
2022-08-30T06:06:01.171Z,14.40
2022-08-30T06:08:27.957Z,14.55
2022-08-30T06:10:54.633Z,14.82
2022-08-30T06:13:23.251Z,14.93
2022-08-30T06:15:51.199Z,15.24
2022-08-30T06:18:18.809Z,16.45
2022-08-30T06:20:54.710Z,18.04
2022-08-30T06:23:21.571Z,18.60
2022-08-30T06:25:48.274Z,18.62
2022-08-30T06:28:14.974Z,17.83
2022-08-30T06:30:42.787Z,17.43
2022-08-30T06:33:10.259Z,17.08
2022-08-30T06:35:46.804Z,17.22
2022-08-30T06:38:19.147Z,17.94
2022-08-30T06:40:45.941Z,18.08
2022-08-30T06:43:12.769Z,18.36
2022-08-30T06:45:39.479Z,18.37
2022-08-30T06:48:06.150Z,18.44
2022-08-30T06:50:32.921Z,18.07
2022-08-30T06:53:05.647Z,18.07
2022-08-30T06:55:33.503Z,17.83
2022-08-30T06:58:01.568Z,17.61
2022-08-30T07:00:29.116Z,17.61
2022-08-30T07:02:56.449Z,17.75
2022-08-30T07:05:23.763Z,18.01
2022-08-30T07:07:53.308Z,18.04
2022-08-30T07:10:21.873Z,18.05
2022-08-30T07:12:49.021Z,18.36
2022-08-30T07:15:16.896Z,18.71
2022-08-30T07:18:02.471Z,18.96
2022-08-30T07:20:39.964Z,19.02
2022-08-30T07:23:08.843Z,19.13
2022-08-30T07:25:39.734Z,18.79
2022-08-30T07:28:07.815Z,18.80
2022-08-30T07:30:35.503Z,18.92
2022-08-30T07:33:02.250Z,18.98
2022-08-30T07:35:28.983Z,19.11
2022-08-30T07:37:55.819Z,19.17
2022-08-30T07:40:22.747Z,19.56
2022-08-30T07:42:49.493Z,19.52
2022-08-30T07:45:19.825Z,19.35
2022-08-30T07:47:46.537Z,19.28
2022-08-30T07:50:13.537Z,19.31
2022-08-30T07:52:40.287Z,19.12
2022-08-30T07:55:10.105Z,19.10
2022-08-30T07:57:37.030Z,19.16
2022-08-30T08:00:06.455Z,19.18
2022-08-30T08:02:33.725Z,19.30
2022-08-30T08:05:00.868Z,19.49
2022-08-30T08:07:27.646Z,19.50
2022-08-30T08:09:54.480Z,19.60
2022-08-30T08:12:21.250Z,19.60
2022-08-30T08:14:48.050Z,19.56
2022-08-30T08:17:14.767Z,19.65
2022-08-30T08:19:41.737Z,19.60
2022-08-30T08:22:20.632Z,19.65
2022-08-30T08:24:49.284Z,19.65
2022-08-30T08:27:16.254Z,19.73
2022-08-30T08:29:42.961Z,19.90
2022-08-30T08:32:09.837Z,20.07
2022-08-30T08:34:36.711Z,20.18
2022-08-30T08:37:03.843Z,19.99
2022-08-30T08:39:30.661Z,19.88
2022-08-30T08:42:28.499Z,19.86
2022-08-30T08:45:10.227Z,20.03
2022-08-30T08:47:56.207Z,19.85
2022-08-30T08:50:24.240Z,19.70
2022-08-30T08:53:36.051Z,19.72
2022-08-30T08:56:12.222Z,19.81
2022-08-30T08:58:48.865Z,20.13
2022-08-30T09:01:18.964Z,20.02
2022-08-30T09:03:46.901Z,19.97
2022-08-30T09:06:51.156Z,19.99
2022-08-30T09:09:27.503Z,20.11
2022-08-30T09:11:54.298Z,20.08
2022-08-30T09:14:30.036Z,20.15
2022-08-30T09:17:02.916Z,20.36
2022-08-30T09:19:34.641Z,20.46
2022-08-30T09:22:14.220Z,20.40
2022-08-30T09:24:47.666Z,20.16
2022-08-30T09:27:24.935Z,20.12
2022-08-30T09:30:01.396Z,20.07
2022-08-30T09:32:32.778Z,20.13
2022-08-30T09:34:59.643Z,20.14
2022-08-30T09:37:34.474Z,20.03
2022-08-30T09:40:08.910Z,20.49
2022-08-30T09:42:35.794Z,20.75
2022-08-30T09:45:12.070Z,20.51
2022-08-30T09:47:43.521Z,20.65
2022-08-30T09:50:24.248Z,21.04
2022-08-30T09:53:14.500Z,21.48
2022-08-30T09:55:57.637Z,21.40
2022-08-30T09:58:52.522Z,21.46
2022-08-30T10:01:27.978Z,21.85
2022-08-30T10:04:02.147Z,22.40
2022-08-30T10:06:36.929Z,22.48
2022-08-30T10:09:31.052Z,22.19
2022-08-30T10:12:20.842Z,22.29
2022-08-30T10:15:23.909Z,22.32
2022-08-30T10:18:04.581Z,22.17
2022-08-30T10:20:39.386Z,22.39
2022-08-30T10:23:13.851Z,22.21
2022-08-30T10:25:51.572Z,22.32
2022-08-30T10:28:43.446Z,21.83
2022-08-30T10:31:22.836Z,21.52
2022-08-30T10:33:59.129Z,21.49
2022-08-30T10:36:36.041Z,21.25
2022-08-30T10:39:04.176Z,21.58
2022-08-30T10:41:31.425Z,22.01
2022-08-30T10:44:04.339Z,22.18
2022-08-30T10:46:40.287Z,22.30
2022-08-30T10:49:16.210Z,22.23
2022-08-30T10:52:23.634Z,22.63
2022-08-30T10:55:09.050Z,22.30
2022-08-30T10:57:37.255Z,22.53
2022-08-30T11:00:06.048Z,22.08
2022-08-30T11:02:54.357Z,22.23
2022-08-30T11:05:24.329Z,22.14
2022-08-30T11:08:03.152Z,21.19
2022-08-30T11:10:29.820Z,21.54
2022-08-30T11:13:05.976Z,21.80
2022-08-30T11:15:37.830Z,21.61
2022-08-30T11:18:10.711Z,21.19
2022-08-30T11:20:40.641Z,21.33
2022-08-30T11:23:25.591Z,21.14
2022-08-30T11:25:58.030Z,21.12
2022-08-30T11:28:37.247Z,20.95
2022-08-30T11:31:12.585Z,20.89
2022-08-30T11:33:46.432Z,20.85
2022-08-30T11:36:37.840Z,20.59
2022-08-30T11:39:40.253Z,20.18
2022-08-30T11:42:29.969Z,20.31
2022-08-30T11:45:26.800Z,20.52
2022-08-30T11:48:00.371Z,21.00
2022-08-30T11:50:49.801Z,21.43
2022-08-30T11:53:29.335Z,21.41
2022-08-30T11:56:10.157Z,21.61
2022-08-30T11:58:59.415Z,21.52
2022-08-30T12:01:42.230Z,21.73
2022-08-30T12:04:19.813Z,21.59
2022-08-30T12:06:54.538Z,21.53
2022-08-30T12:09:44.257Z,21.83
2022-08-30T12:12:32.768Z,22.22
2022-08-30T12:15:00.398Z,21.77
2022-08-30T12:18:04.234Z,21.55
2022-08-30T12:20:46.296Z,21.80
2022-08-30T12:23:21.218Z,21.97
2022-08-30T12:25:48.211Z,21.73
2022-08-30T12:28:28.780Z,21.35
2022-08-30T12:30:55.571Z,21.31
2022-08-30T12:33:36.555Z,21.26
2022-08-30T12:36:12.746Z,21.32
2022-08-30T12:38:40.995Z,21.52
2022-08-30T12:41:07.931Z,21.48
2022-08-30T12:43:40.454Z,21.45
2022-08-30T12:46:12.476Z,21.45
2022-08-30T12:48:45.240Z,21.54
2022-08-30T12:51:34.319Z,21.66
2022-08-30T12:54:14.314Z,21.44
2022-08-30T12:56:49.549Z,21.33
2022-08-30T12:59:51.840Z,21.36
2022-08-30T13:02:22.920Z,21.30
2022-08-30T13:04:51.929Z,21.44
2022-08-30T13:07:30.802Z,21.33
2022-08-30T13:10:19.547Z,21.67
2022-08-30T13:13:07.154Z,22.08
2022-08-30T13:15:42.451Z,21.86
2022-08-30T13:18:22.259Z,21.77
2022-08-30T13:21:28.244Z,21.71
2022-08-30T13:24:00.140Z,21.57
2022-08-30T13:26:31.338Z,21.31
2022-08-30T13:29:04.103Z,21.38
2022-08-30T13:31:31.887Z,21.44
2022-08-30T13:33:59.788Z,21.31
2022-08-30T13:36:32.369Z,21.37
2022-08-30T13:39:00.789Z,21.35
2022-08-30T13:41:34.199Z,21.29
2022-08-30T13:44:11.670Z,21.45
2022-08-30T13:46:43.199Z,21.64
2022-08-30T13:52:19.851Z,21.65
2022-08-30T13:54:49.879Z,21.35
2022-08-30T14:00:14.749Z,21.52
2022-08-30T14:02:45.322Z,21.41
2022-08-30T14:05:37.666Z,21.30
2022-08-30T14:08:02.142Z,21.52
2022-08-30T14:10:31.359Z,21.49
2022-08-30T14:13:07.967Z,21.42
2022-08-30T14:15:39.369Z,21.67
2022-08-30T14:18:07.823Z,21.51
2022-08-30T14:20:38.552Z,21.17
2022-08-30T14:23:09.943Z,21.35
2022-08-30T14:25:37.094Z,21.56
2022-08-30T14:28:04.359Z,21.38
2022-08-30T14:30:31.848Z,21.43
2022-08-30T14:33:00.083Z,20.98
2022-08-30T14:35:26.887Z,20.83
2022-08-30T14:37:54.351Z,20.95
2022-08-30T14:40:21.190Z,21.21
2022-08-30T14:42:48.141Z,21.10
2022-08-30T14:45:15.701Z,20.96
2022-08-30T14:47:43.578Z,20.92
2022-08-30T14:50:10.453Z,21.11
2022-08-30T14:52:37.517Z,21.45
2022-08-30T14:55:09.311Z,21.31
2022-08-30T14:57:38.292Z,21.35
2022-08-30T15:00:08.716Z,21.46
2022-08-30T15:02:35.721Z,21.36
2022-08-30T15:05:03.689Z,21.21
2022-08-30T15:07:33.801Z,21.21
2022-08-30T15:10:00.549Z,21.02
2022-08-30T15:12:28.306Z,21.14
2022-08-30T15:14:56.019Z,21.20
2022-08-30T15:17:22.775Z,21.01
2022-08-30T15:19:49.579Z,21.27
2022-08-30T15:22:17.023Z,21.12
2022-08-30T15:24:44.233Z,21.01
2022-08-30T15:27:15.903Z,21.29
2022-08-30T15:29:42.653Z,21.42
2022-08-30T15:32:09.391Z,21.49
2022-08-30T15:34:36.244Z,21.41
2022-08-30T15:37:05.004Z,21.26
2022-08-30T15:39:32.316Z,21.35
2022-08-30T15:42:01.122Z,21.07
2022-08-30T15:44:32.229Z,21.07
2022-08-30T15:47:01.400Z,20.74
2022-08-30T15:49:28.426Z,20.56
2022-08-30T15:52:01.134Z,20.53
2022-08-30T15:54:28.235Z,20.56
2022-08-30T15:56:59.625Z,20.57
2022-08-30T15:59:31.328Z,20.48
2022-08-30T16:01:58.207Z,20.48
2022-08-30T16:04:25.714Z,20.44
2022-08-30T16:06:52.901Z,20.41
2022-08-30T16:09:19.777Z,20.41
2022-08-30T16:11:46.577Z,20.35
2022-08-30T16:14:13.463Z,20.29
2022-08-30T16:16:41.873Z,20.25
2022-08-30T16:19:09.459Z,20.14
2022-08-30T16:21:37.261Z,20.17
2022-08-30T16:24:06.047Z,20.38
2022-08-30T16:26:42.765Z,20.38
2022-08-30T16:29:10.098Z,20.25
2022-08-30T16:31:38.415Z,20.31
2022-08-30T16:34:15.797Z,20.20
2022-08-30T16:36:49.851Z,20.24
2022-08-30T16:39:17.129Z,20.06
2022-08-30T16:41:44.893Z,20.10
2022-08-30T16:44:12.954Z,19.97
2022-08-30T16:46:41.417Z,19.87
2022-08-30T16:49:08.680Z,19.79
2022-08-30T16:51:36.859Z,19.76
2022-08-30T16:54:07.810Z,19.72
2022-08-30T16:56:35.784Z,19.62
2022-08-30T16:59:07.010Z,19.65
2022-08-30T17:01:38.519Z,19.75
2022-08-30T17:04:08.158Z,19.65
2022-08-30T17:06:35.857Z,19.69
2022-08-30T17:09:03.941Z,19.70
2022-08-30T17:11:32.889Z,19.56
2022-08-30T17:13:59.793Z,19.57
2022-08-30T17:16:30.029Z,19.52
2022-08-30T17:19:00.021Z,19.50
2022-08-30T17:21:31.061Z,19.54
2022-08-30T17:24:02.183Z,19.49
2022-08-30T17:26:35.380Z,19.24
2022-08-30T17:29:02.456Z,19.24
2022-08-30T17:31:31.033Z,19.42
2022-08-30T17:34:03.586Z,19.26
2022-08-30T17:36:32.906Z,19.19
2022-08-30T17:39:08.825Z,18.99
2022-08-30T17:41:43.356Z,19.13
2022-08-30T17:44:25.924Z,19.05
2022-08-30T17:46:53.599Z,18.86
2022-08-30T17:49:21.220Z,18.79
2022-08-30T17:51:56.427Z,18.67
2022-08-30T17:54:25.690Z,18.53
2022-08-30T17:56:52.896Z,18.42
2022-08-30T17:59:20.097Z,18.34
2022-08-30T18:01:53.684Z,18.28
2022-08-30T18:04:21.779Z,18.08
2022-08-30T18:06:51.966Z,17.71
2022-08-30T18:09:18.842Z,17.64
2022-08-30T18:11:46.211Z,17.54
2022-08-30T18:14:16.808Z,17.41
2022-08-30T18:16:53.448Z,17.25
2022-08-30T18:19:25.347Z,17.08
2022-08-30T18:21:52.661Z,16.94
2022-08-30T18:24:19.856Z,16.63
2022-08-30T18:26:47.704Z,16.22
2022-08-30T18:29:15.389Z,15.99
2022-08-30T18:31:57.089Z,15.90
2022-08-30T18:34:24.654Z,15.95
2022-08-30T18:36:51.751Z,16.06
2022-08-30T18:39:20.102Z,16.03
2022-08-30T18:41:48.755Z,16.03
2022-08-30T18:44:27.847Z,15.95
2022-08-30T18:46:57.095Z,15.90
2022-08-30T18:49:27.765Z,15.61
2022-08-30T18:51:54.779Z,15.44
2022-08-30T18:54:21.847Z,15.58
2022-08-30T18:56:50.279Z,15.41
2022-08-30T18:59:19.106Z,15.15
2022-08-30T19:01:48.676Z,14.98
2022-08-30T19:04:30.093Z,14.90
2022-08-30T19:07:04.944Z,14.91
2022-08-30T19:09:31.870Z,15.00
2022-08-30T19:12:02.681Z,15.04
2022-08-30T19:14:30.529Z,15.03
2022-08-30T19:17:02.044Z,14.95
2022-08-30T19:19:31.454Z,14.89
2022-08-30T19:21:59.647Z,14.53
2022-08-30T19:24:26.753Z,14.33
2022-08-30T19:26:53.573Z,14.27
2022-08-30T19:29:20.405Z,14.14
2022-08-30T19:31:47.296Z,14.20
2022-08-30T19:34:17.044Z,14.25
2022-08-30T19:36:43.988Z,14.35
2022-08-30T19:39:11.809Z,14.19
2022-08-30T19:41:38.899Z,14.05
2022-08-30T19:44:07.928Z,13.91
2022-08-30T19:46:37.035Z,13.93
2022-08-30T19:49:07.689Z,14.01
2022-08-30T19:51:34.845Z,14.09
2022-08-30T19:54:04.286Z,13.78
2022-08-30T19:56:31.955Z,13.62
2022-08-30T19:58:59.696Z,13.59
2022-08-30T20:01:33.536Z,13.68
2022-08-30T20:04:02.191Z,13.75
2022-08-30T20:06:30.422Z,13.82
2022-08-30T20:08:58.517Z,13.82
2022-08-30T20:11:28.087Z,13.61
2022-08-30T20:13:54.946Z,13.45
2022-08-30T20:16:35.669Z,13.49
2022-08-30T20:19:06.390Z,13.48
2022-08-30T20:21:34.309Z,13.28
2022-08-30T20:24:02.875Z,13.34
2022-08-30T20:26:34.372Z,13.36
2022-08-30T20:29:03.180Z,13.35
2022-08-30T20:31:30.202Z,13.36
2022-08-30T20:33:57.204Z,13.14
2022-08-30T20:36:23.971Z,13.06
2022-08-30T20:38:51.275Z,13.11
2022-08-30T20:41:19.061Z,13.11
2022-08-30T20:43:46.988Z,13.04
2022-08-30T20:46:19.483Z,13.05
2022-08-30T20:48:47.010Z,13.06
2022-08-30T20:51:17.491Z,13.07
2022-08-30T20:53:44.976Z,12.95
2022-08-30T20:56:17.572Z,12.91
2022-08-30T20:58:45.112Z,12.96
2022-08-30T21:01:13.428Z,12.84
2022-08-30T21:03:41.028Z,12.90
2022-08-30T21:06:08.281Z,12.81
2022-08-30T21:08:35.065Z,12.56
2022-08-30T21:11:01.820Z,12.41
2022-08-30T21:13:28.604Z,12.39
2022-08-30T21:16:00.286Z,12.34
2022-08-30T21:18:32.999Z,12.33
2022-08-30T21:21:32.359Z,12.30
2022-08-30T21:24:10.261Z,12.27
2022-08-30T21:26:40.073Z,12.21
2022-08-30T21:29:07.402Z,12.23
2022-08-30T21:31:35.693Z,12.33
2022-08-30T21:34:02.415Z,12.38
2022-08-30T21:36:47.259Z,12.38
2022-08-30T21:39:26.319Z,12.42
2022-08-30T21:44:48.261Z,12.10
2022-08-30T21:47:23.273Z,12.06
2022-08-30T21:49:50.677Z,12.19
2022-08-30T21:52:17.407Z,12.24
2022-08-30T21:54:44.122Z,12.16
2022-08-30T21:57:10.925Z,12.03
2022-08-30T21:59:37.770Z,12.08
2022-08-30T22:02:04.719Z,12.03
2022-08-30T22:04:31.863Z,12.13
2022-08-30T22:06:59.372Z,12.15
2022-08-30T22:09:26.139Z,12.05
2022-08-30T22:11:53.655Z,11.95
2022-08-30T22:14:21.285Z,12.03
2022-08-30T22:16:48.342Z,12.07
2022-08-30T22:19:17.743Z,12.07
2022-08-30T22:21:48.005Z,11.85
2022-08-30T22:24:15.795Z,11.98
2022-08-30T22:26:43.397Z,11.96
2022-08-30T22:29:10.409Z,11.87
2022-08-30T22:31:41.270Z,11.93
2022-08-30T22:34:10.204Z,11.85
2022-08-30T22:36:38.222Z,11.87
2022-08-30T22:39:08.033Z,11.80
2022-08-30T22:41:35.474Z,11.72
2022-08-30T22:44:02.935Z,11.77
2022-08-30T22:46:34.576Z,11.84
2022-08-30T22:49:04.944Z,11.81
2022-08-30T22:51:32.311Z,11.90
2022-08-30T22:53:59.804Z,11.90
2022-08-30T22:56:27.407Z,11.66
2022-08-30T22:58:54.820Z,11.67
2022-08-30T23:01:24.406Z,11.76
2022-08-30T23:03:52.380Z,11.79
2022-08-30T23:06:19.427Z,11.67
2022-08-30T23:08:46.235Z,11.73
2022-08-30T23:11:13.286Z,11.75
2022-08-30T23:13:40.842Z,11.62
2022-08-30T23:16:08.706Z,11.54
2022-08-30T23:18:37.762Z,11.60
2022-08-30T23:21:31.227Z,11.67
2022-08-30T23:24:17.688Z,11.44
2022-08-30T23:27:04.039Z,11.40
2022-08-30T23:29:50.202Z,11.46
2022-08-30T23:32:35.307Z,11.38
2022-08-30T23:35:20.578Z,11.23
2022-08-30T23:38:12.549Z,11.21
2022-08-30T23:40:57.813Z,11.15
2022-08-30T23:43:43.058Z,11.19
2022-08-30T23:46:28.245Z,11.11
2022-08-30T23:49:13.462Z,11.12
2022-08-30T23:51:58.585Z,11.01
2022-08-30T23:54:43.789Z,10.98
2022-08-30T23:57:29.088Z,11.02
